LBE weather

Arnold Palmer Regional Airport
Latrobe, Pennsylvania, United States

Public forecast

Using degrees Fahrenheit for public forecast. Weather courtesy of forecast.io.

Current aviation weather report (METAR) for Arnold Palmer Regional Airport

Retrieved 2020/04/03 07:15 UTC (11 minutes ago):

KLBE 030715Z AUTO 25006KT 10SM CLR 04/M07 A2998 RMK AO2

Aviation forecast (TAF) for Arnold Palmer Regional Airport

Retrieved 2020/04/03 06:30 UTC (56 minutes ago):

TAF KLBE 030526Z 0306/0406 25005KT P6SM SKC FM031400 32010G20KT P6SM SKC FM032300 33010KT P6SM OVC050 FM040500 32005KT P6SM OVC025